Burkhardt, Wisconsin
Current Conditions -  °F | °C
As of 10:11 PM on Saturday 25 Oct 2014 (Local Time) from K21D Reporting Station
Clear Clear  
Wind Chill: 44°   Ceiling: Unl
Heat Index: 46°   Visibility: 10mi
Dew Point: 28°   Wind: 5mph
Humidity: 50%   Direction: 300°WNW
Pressure: 30.04"   Gusts: NA
Location:  44.9743°N, 92.6899°W
Report Text: K21D 260311Z AUTO 30004KT 10SM CLR 08/M02 A3004 RMK AO2
Loading
Personal Weather Stations






























Interactive Weather Map
Tropical Storm Tracking
New forecast layout! Learn more

10-Day Weather Forecast

Advertisements
Track Severe Weather on mobile